ヌーク の空港の天気 - METARとTAF

ヌーク空港 ( BGGH / GOH ) - グリーンランド ヌーク
飛行場実況気象(Metar)
観測時間01/19 07:50 WGT (01/19 10:50 UTC)
風向・風速南 7m/s
視程10km以上
天気現象低い地吹雪
全天を覆う雲 雲底高度 2260m
気温-3℃
湿度68%
気圧984hPa
METARBGGH 191050Z 18013KT 9999 DRSN OVC074 M03/M08 Q0984
過去の天気等 Google飛行場航空写真 Wunderground天気予報

過去48時間のMETAR

飛行場予報(TAF)
発表時間: 1/19 06:07 WGT (1/19 09:07 UTC)
予報対象時間: 19日6時 WGT ~ 19日15時 WGT
風向・風速南 8m/s
視程10km以上
全天の4割程度の雲 雲底高度 430m
全天の8割程度の雲 雲底高度 1220m
19日6時 WGT ~ 19日15時 WGT に一時的に
視程4000m
天気現象弱い雪
全天の8割程度の雲 雲底高度 430m
19日11時 WGT ~ 19日13時 WGT に徐々に
風向・風速北東 4m/s
TAF BGGH 190907Z 1909/1918 17015KT 9999 SCT014 BKN040
TEMPO 1909/1918 4000 -SN BKN014
BECMG 1914/1916 04008KT